Time;durP1;ratioP1;P1;durP2;ratioP2;P2;SDS_P1;SDS_P2;PMS_P1;PMS_P2;Temp;Humidity;BMP_temperature;BMP_pressure;BME280_temperature;BME280_humidity;BME280_pressure;Samples;Min_cycle;Max_cycle;Signal;HPM_P1;HPM_P2
2021/12/26 00:02:35;;;;;;;44.80;32.42;;;6.30;85.60;;;;;;10826899;33;20344;-72
2021/12/26 00:08:38;;;;;;;37.33;26.25;;;6.40;85.50;;;;;;10829611;33;20019;-73
2021/12/26 00:14:41;;;;;;;36.40;22.92;;;6.30;85.50;;;;;;10829890;33;20024;-72
2021/12/26 00:20:45;;;;;;;44.05;28.10;;;6.30;85.40;;;;;;10829915;33;20016;-72
2021/12/26 00:26:47;;;;;;;36.95;22.98;;;6.30;85.40;;;;;;10829566;33;20344;-72
2021/12/26 00:32:50;;;;;;;44.63;27.08;;;6.30;85.40;;;;;;10829576;33;20011;-72
2021/12/26 00:38:52;;;;;;;43.53;27.85;;;6.30;85.40;;;;;;10829337;33;20302;-73
2021/12/26 00:44:54;;;;;;;39.72;26.02;;;6.40;85.50;;;;;;10825936;33;20047;-73
2021/12/26 00:50:57;;;;;;;33.05;23.00;;;6.30;85.40;;;;;;10828898;33;20337;-73
2021/12/26 00:56:59;;;;;;;42.15;26.20;;;6.30;85.40;;;;;;10826253;32;20315;-73
2021/12/26 01:03:04;;;;;;;32.33;20.10;;;6.30;85.40;;;;;;10828439;33;20059;-72
2021/12/26 01:09:09;;;;;;;47.30;30.98;;;6.30;85.50;;;;;;10827382;32;20024;-73
2021/12/26 01:15:13;;;;;;;53.05;34.15;;;6.30;85.60;;;;;;10812515;33;20020;-73
2021/12/26 01:21:25;;;;;;;54.90;34.60;;;6.20;85.70;;;;;;10828234;33;20347;-73
2021/12/26 01:27:29;;;;;;;47.55;31.00;;;6.20;86.00;;;;;;10825883;33;20032;-72
2021/12/26 01:33:32;;;;;;;47.90;31.92;;;6.20;85.90;;;;;;10825091;33;20047;-73
2021/12/26 01:39:34;;;;;;;42.92;27.35;;;6.20;86.00;;;;;;10827682;32;20047;-73
2021/12/26 01:45:37;;;;;;;35.53;24.85;;;6.20;86.00;;;;;;10830291;27;20485;-72
2021/12/26 01:51:41;;;;;;;45.58;27.87;;;6.20;85.90;;;;;;10827117;33;20063;-73
2021/12/26 01:57:43;;;;;;;36.05;22.95;;;6.20;85.90;;;;;;10823062;33;20353;-72
2021/12/26 02:03:45;;;;;;;33.53;20.20;;;6.20;85.80;;;;;;10826924;33;20344;-72
2021/12/26 02:09:47;;;;;;;24.02;16.27;;;6.20;85.80;;;;;;10826582;33;20028;-73
2021/12/26 02:15:51;;;;;;;32.35;21.35;;;6.30;85.80;;;;;;10826464;33;20046;-72
2021/12/26 02:22:08;;;;;;;24.08;15.98;;;6.30;85.80;;;;;;10825962;32;20051;-73
2021/12/26 02:28:12;;;;;;;23.10;15.32;;;6.30;85.80;;;;;;10826205;33;20019;-73
2021/12/26 02:34:14;;;;;;;26.67;17.37;;;6.30;85.70;;;;;;10825996;33;20039;-73
2021/12/26 02:40:17;;;;;;;14.98;8.98;;;6.40;85.70;;;;;;10825641;33;20117;-72
2021/12/26 02:46:19;;;;;;;18.75;13.10;;;6.30;85.70;;;;;;10825657;33;20024;-73
2021/12/26 02:52:21;;;;;;;28.70;16.00;;;6.30;85.70;;;;;;10825674;33;20415;-73
2021/12/26 02:58:24;;;;;;;26.40;16.98;;;6.20;85.70;;;;;;10824616;33;20023;-73
2021/12/26 03:04:26;;;;;;;18.62;13.30;;;6.20;85.80;;;;;;10825201;33;20082;-72
2021/12/26 03:10:28;;;;;;;27.45;19.12;;;6.20;85.80;;;;;;10811888;33;20054;-72
2021/12/26 03:16:30;;;;;;;27.05;18.05;;;6.10;85.80;;;;;;10824992;33;20043;-72
2021/12/26 03:22:33;;;;;;;28.98;17.37;;;6.10;85.90;;;;;;10824847;33;20073;-73
2021/12/26 03:28:35;;;;;;;33.38;18.90;;;6.10;86.00;;;;;;10823339;33;20024;-73
2021/12/26 03:34:48;;;;;;;38.78;24.80;;;6.10;86.10;;;;;;10828218;32;20431;-72
2021/12/26 03:40:53;;;;;;;38.85;25.12;;;6.00;86.00;;;;;;10831050;33;20046;-73
2021/12/26 03:46:55;;;;;;;33.67;21.83;;;6.00;86.00;;;;;;10830636;33;20035;-73
2021/12/26 03:53:01;;;;;;;36.00;22.65;;;6.00;86.00;;;;;;10830798;33;20024;-73
2021/12/26 03:59:04;;;;;;;31.42;22.13;;;5.90;86.00;;;;;;10817635;33;20055;-73
2021/12/26 04:05:08;;;;;;;42.60;26.58;;;5.90;86.00;;;;;;10830156;33;20032;-73
2021/12/26 04:11:10;;;;;;;36.63;22.42;;;5.80;85.90;;;;;;10817041;33;20024;-73
2021/12/26 04:17:14;;;;;;;21.87;15.00;;;5.80;86.20;;;;;;10826108;33;20039;-73
2021/12/26 04:23:18;;;;;;;20.48;13.80;;;5.80;86.20;;;;;;10829590;33;20066;-73
2021/12/26 04:29:21;;;;;;;20.12;13.07;;;5.80;86.10;;;;;;10829686;33;20016;-73
2021/12/26 04:35:24;;;;;;;18.27;12.63;;;5.80;86.00;;;;;;10829662;33;20415;-73
2021/12/26 04:41:28;;;;;;;16.00;11.35;;;5.70;86.00;;;;;;10829171;32;20028;-73
2021/12/26 04:47:31;;;;;;;15.48;11.55;;;5.60;85.90;;;;;;10825126;32;20363;-73
2021/12/26 04:53:36;;;;;;;23.10;16.05;;;5.60;86.00;;;;;;10828926;33;20023;-73
2021/12/26 04:59:39;;;;;;;16.65;10.65;;;5.60;86.00;;;;;;10828741;33;20387;-73
2021/12/26 05:05:44;;;;;;;16.35;11.60;;;5.60;86.00;;;;;;10828316;33;20020;-73
2021/12/26 05:11:47;;;;;;;33.00;18.58;;;5.50;85.90;;;;;;10828508;32;20068;-73
2021/12/26 05:17:51;;;;;;;13.05;9.05;;;5.50;86.10;;;;;;10828105;33;20024;-72
2021/12/26 05:23:56;;;;;;;26.73;17.27;;;5.40;86.20;;;;;;10827922;33;20058;-72
2021/12/26 05:29:59;;;;;;;18.85;11.15;;;5.40;86.00;;;;;;10827911;33;20043;-73
2021/12/26 05:36:03;;;;;;;17.62;13.85;;;5.30;86.10;;;;;;10827804;33;20020;-72
2021/12/26 05:42:07;;;;;;;26.75;18.40;;;5.30;86.10;;;;;;10827481;33;20105;-73
2021/12/26 05:48:10;;;;;;;21.15;15.88;;;5.30;86.10;;;;;;10814191;33;20396;-72
2021/12/26 05:54:14;;;;;;;17.55;11.93;;;5.30;86.10;;;;;;10826471;32;20028;-72
2021/12/26 06:00:19;;;;;;;19.98;16.08;;;5.30;86.00;;;;;;10826965;33;20167;-73
2021/12/26 06:06:21;;;;;;;13.77;10.23;;;5.30;85.90;;;;;;10826858;33;20049;-72
2021/12/26 06:12:25;;;;;;;14.77;10.25;;;5.30;85.90;;;;;;10826771;33;20042;-72
2021/12/26 06:18:29;;;;;;;15.43;9.73;;;5.20;85.80;;;;;;10826523;33;20024;-73
2021/12/26 06:24:43;;;;;;;11.38;7.25;;;5.10;85.80;;;;;;10826519;33;20329;-73
2021/12/26 06:30:46;;;;;;;12.65;8.93;;;5.00;85.90;;;;;;10825831;33;20023;-73
2021/12/26 06:36:51;;;;;;;14.87;9.20;;;5.00;85.90;;;;;;10813006;33;20038;-73
2021/12/26 06:43:20;;;;;;;20.15;14.00;;;4.90;85.90;;;;;;10825516;33;20032;-72
2021/12/26 06:49:32;;;;;;;11.70;8.77;;;4.90;85.80;;;;;;10825707;33;20054;-73
2021/12/26 06:55:34;;;;;;;11.12;7.82;;;4.80;85.90;;;;;;10825552;33;20316;-73
2021/12/26 07:01:38;;;;;;;10.73;7.85;;;4.80;86.00;;;;;;10825291;33;20020;-73
2021/12/26 07:07:42;;;;;;;14.48;9.93;;;4.80;85.90;;;;;;10825186;33;20023;-72
2021/12/26 07:13:45;;;;;;;16.73;11.35;;;4.80;85.90;;;;;;10825086;33;20024;-73
2021/12/26 07:19:48;;;;;;;19.15;15.40;;;4.70;85.80;;;;;;10824939;33;20396;-73
2021/12/26 07:25:52;;;;;;;28.17;15.30;;;4.70;85.80;;;;;;10824628;33;20016;-73
2021/12/26 07:31:56;;;;;;;19.87;15.85;;;4.70;85.90;;;;;;10824577;33;20028;-73
2021/12/26 07:38:22;;;;;;;36.25;17.90;;;4.70;85.90;;;;;;10824565;33;20434;-73
2021/12/26 07:44:25;;;;;;;29.80;17.62;;;4.50;85.80;;;;;;10809723;33;20024;-73
2021/12/26 07:50:29;;;;;;;30.88;16.80;;;4.50;85.80;;;;;;10824094;33;20019;-73
2021/12/26 07:56:46;;;;;;;18.48;13.00;;;4.50;85.80;;;;;;10819348;33;20016;-73
2021/12/26 08:03:03;;;;;;;21.08;14.73;;;4.50;85.90;;;;;;10823243;33;20020;-73
2021/12/26 08:09:10;;;;;;;25.62;15.68;;;4.60;85.90;;;;;;10823413;33;20046;-73
2021/12/26 08:15:12;;;;;;;22.48;15.68;;;4.60;85.90;;;;;;10810571;33;20046;-73
2021/12/26 08:21:15;;;;;;;34.25;19.12;;;4.60;85.90;;;;;;10810568;33;20406;-73
2021/12/26 08:27:17;;;;;;;17.90;13.57;;;4.70;86.10;;;;;;10829452;33;20097;-73
2021/12/26 08:33:19;;;;;;;25.75;18.95;;;4.70;85.90;;;;;;10829468;33;20020;-73
2021/12/26 08:39:22;;;;;;;15.88;10.50;;;4.70;86.00;;;;;;10826785;33;20316;-72
2021/12/26 08:45:25;;;;;;;18.20;14.32;;;4.80;86.00;;;;;;10829014;33;20024;-73
2021/12/26 08:51:28;;;;;;;28.52;21.90;;;4.90;86.00;;;;;;10828878;33;20043;-71
2021/12/26 08:57:32;;;;;;;20.48;14.50;;;5.00;86.20;;;;;;10828744;33;20024;-70
2021/12/26 09:03:37;;;;;;;19.80;14.48;;;5.10;86.00;;;;;;10828606;33;20388;-70
2021/12/26 09:09:40;;;;;;;21.95;17.48;;;5.10;86.10;;;;;;10815171;33;20104;-71
2021/12/26 09:15:48;;;;;;;22.27;14.80;;;5.10;86.10;;;;;;10827905;33;20046;-70
2021/12/26 09:21:51;;;;;;;22.10;16.40;;;5.10;86.30;;;;;;10825831;33;20028;-70
2021/12/26 09:27:53;;;;;;;23.77;17.40;;;5.20;86.30;;;;;;10827836;33;20025;-70
2021/12/26 09:33:56;;;;;;;54.40;27.62;;;5.30;86.30;;;;;;10826176;32;20047;-72
2021/12/26 09:39:58;;;;;;;25.02;18.08;;;5.20;86.10;;;;;;10827239;33;20032;-70
2021/12/26 09:46:00;;;;;;;28.83;17.50;;;5.00;86.50;;;;;;10251375;27;16975659;-70
2021/12/26 09:52:04;;;;;;;28.75;18.85;;;5.10;86.70;;;;;;10750258;33;20032;-71
2021/12/26 09:58:07;;;;;;;21.12;15.52;;;5.20;86.60;;;;;;10750405;33;20139;-71
2021/12/26 10:04:29;;;;;;;20.98;14.48;;;5.30;86.50;;;;;;10749668;33;20032;-71
2021/12/26 10:10:31;;;;;;;25.23;17.75;;;5.50;86.50;;;;;;10800117;33;20043;-70
2021/12/26 10:16:42;;;;;;;22.75;17.50;;;5.60;86.40;;;;;;10825942;33;20016;-73
2021/12/26 10:22:47;;;;;;;24.83;17.83;;;5.70;86.30;;;;;;10826363;33;20289;-70
2021/12/26 10:29:07;;;;;;;32.15;19.65;;;5.70;86.20;;;;;;10826727;33;20050;-71
2021/12/26 10:35:14;;;;;;;20.55;15.15;;;5.70;86.10;;;;;;10826029;33;20074;-71
2021/12/26 10:41:25;;;;;;;23.52;16.52;;;5.70;86.10;;;;;;10825466;32;20095;-70
2021/12/26 10:47:30;;;;;;;27.35;19.80;;;5.70;86.00;;;;;;10825464;33;20047;-70
2021/12/26 10:53:32;;;;;;;46.58;28.30;;;5.70;86.00;;;;;;10812357;33;20050;-70
2021/12/26 10:59:34;;;;;;;16.87;11.48;;;5.80;86.10;;;;;;10819678;32;20026;-70
2021/12/26 11:05:44;;;;;;;19.23;14.95;;;5.80;85.90;;;;;;10811963;33;20054;-70
2021/12/26 11:12:07;;;;;;;27.37;19.20;;;5.90;86.00;;;;;;10825160;33;20439;-70
2021/12/26 11:18:12;;;;;;;27.05;20.40;;;6.00;85.90;;;;;;10824644;33;20024;-70
2021/12/26 11:24:15;;;;;;;30.65;24.45;;;6.00;85.90;;;;;;10824659;33;20027;-70
2021/12/26 11:30:19;;;;;;;30.00;22.67;;;6.10;85.90;;;;;;10824418;33;20090;-70
2021/12/26 11:36:23;;;;;;;26.70;19.85;;;6.20;85.90;;;;;;10824481;33;20020;-70
2021/12/26 11:42:50;;;;;;;24.30;16.52;;;6.20;85.90;;;;;;10820153;33;20050;-70
2021/12/26 11:49:34;;;;;;;34.55;27.17;;;6.20;85.80;;;;;;10822442;33;20050;-70
2021/12/26 11:56:15;;;;;;;24.12;19.17;;;6.40;85.90;;;;;;10830658;32;20060;-70
2021/12/26 12:02:42;;;;;;;23.20;17.98;;;6.50;85.80;;;;;;10832477;32;20032;-70
2021/12/26 12:08:44;;;;;;;29.45;23.33;;;6.70;85.70;;;;;;10820119;32;20040;-70
2021/12/26 12:15:06;;;;;;;30.50;21.55;;;6.70;85.60;;;;;;10832176;32;20379;-70
2021/12/26 12:21:21;;;;;;;28.12;20.37;;;6.90;85.60;;;;;;10832040;32;20036;-70
2021/12/26 12:27:27;;;;;;;21.33;16.10;;;7.00;85.50;;;;;;10831624;32;20039;-70
2021/12/26 12:33:32;;;;;;;19.83;13.90;;;7.00;85.50;;;;;;10830944;32;20019;-70
2021/12/26 12:39:34;;;;;;;22.73;18.25;;;7.10;85.40;;;;;;10829343;33;20400;-70
2021/12/26 12:45:56;;;;;;;24.63;16.95;;;7.20;85.20;;;;;;10829195;33;20024;-70
2021/12/26 12:51:58;;;;;;;34.42;25.90;;;7.20;85.30;;;;;;10829171;33;20080;-70
2021/12/26 12:58:18;;;;;;;27.48;19.58;;;7.10;85.40;;;;;;10828952;33;20032;-70
2021/12/26 13:04:52;;;;;;;35.30;24.23;;;7.20;85.60;;;;;;10828459;32;20070;-70
2021/12/26 13:10:58;;;;;;;29.95;22.67;;;7.10;85.70;;;;;;10828474;33;20051;-70
2021/12/26 13:17:01;;;;;;;43.55;29.55;;;7.10;85.70;;;;;;10811033;33;20032;-70
2021/12/26 13:23:04;;;;;;;30.35;23.17;;;7.00;85.80;;;;;;10828314;33;20050;-70
2021/12/26 13:29:07;;;;;;;33.65;24.95;;;7.10;85.80;;;;;;10827937;33;20032;-70
2021/12/26 13:35:09;;;;;;;32.75;23.45;;;7.10;85.80;;;;;;10828026;33;20055;-70
2021/12/26 13:41:14;;;;;;;26.60;19.65;;;7.10;85.80;;;;;;10827514;32;20028;-70
2021/12/26 13:47:17;;;;;;;33.72;23.23;;;7.10;85.80;;;;;;10830645;32;20081;-70
2021/12/26 13:53:20;;;;;;;31.25;22.20;;;7.10;85.80;;;;;;10834573;32;20062;-70
2021/12/26 13:59:38;;;;;;;36.42;28.17;;;7.10;85.80;;;;;;10861441;32;20035;-70
2021/12/26 14:05:40;;;;;;;33.50;22.92;;;7.10;85.80;;;;;;10864178;32;20289;-70
2021/12/26 14:11:43;;;;;;;29.05;23.48;;;7.10;85.80;;;;;;10849470;32;20020;-70
2021/12/26 14:17:55;;;;;;;33.58;26.55;;;7.10;85.90;;;;;;10826976;32;20024;-70
2021/12/26 14:23:58;;;;;;;40.50;30.58;;;7.10;85.90;;;;;;10822427;33;20052;-70
2021/12/26 14:30:01;;;;;;;40.30;31.15;;;7.10;85.90;;;;;;10826617;32;20032;-70
2021/12/26 14:36:06;;;;;;;36.45;23.02;;;7.10;85.90;;;;;;10825783;33;20312;-70
2021/12/26 14:42:18;;;;;;;34.90;24.40;;;7.00;86.00;;;;;;10825870;33;20085;-70
2021/12/26 14:48:40;;;;;;;39.58;29.65;;;7.10;86.00;;;;;;10825704;33;20024;-70
2021/12/26 14:54:45;;;;;;;37.75;26.30;;;7.10;86.00;;;;;;10825481;33;20016;-70
2021/12/26 15:00:47;;;;;;;51.00;36.40;;;7.10;86.00;;;;;;10812157;33;20024;-70
2021/12/26 15:06:53;;;;;;;37.55;28.12;;;7.00;86.00;;;;;;10821039;33;20388;-70
2021/12/26 15:12:57;;;;;;;24.12;17.10;;;7.10;86.00;;;;;;10825058;33;20028;-70
2021/12/26 15:18:59;;;;;;;32.88;26.50;;;7.10;86.00;;;;;;10824492;33;20031;-70
2021/12/26 15:25:01;;;;;;;41.37;30.55;;;7.00;86.00;;;;;;10824812;33;20032;-70
2021/12/26 15:31:12;;;;;;;44.85;31.80;;;7.00;86.10;;;;;;10823682;33;20062;-70
2021/12/26 15:37:17;;;;;;;41.50;27.90;;;7.00;86.10;;;;;;10821851;33;20054;-70
2021/12/26 15:43:19;;;;;;;33.28;24.35;;;7.00;86.10;;;;;;10824180;33;20031;-70
2021/12/26 15:49:24;;;;;;;36.22;28.33;;;7.00;86.10;;;;;;10824084;33;20031;-70
2021/12/26 15:55:27;;;;;;;30.80;23.87;;;7.00;86.10;;;;;;10821655;33;20024;-70
2021/12/26 16:01:30;;;;;;;33.88;24.37;;;7.00;86.10;;;;;;10824072;33;20305;-70
2021/12/26 16:07:34;;;;;;;33.53;25.42;;;7.00;86.10;;;;;;10819687;33;20036;-70
2021/12/26 16:13:36;;;;;;;34.55;26.25;;;7.10;86.10;;;;;;10823664;33;20392;-70
2021/12/26 16:19:38;;;;;;;31.58;24.45;;;7.10;86.10;;;;;;10819753;33;20363;-70
2021/12/26 16:25:41;;;;;;;23.80;17.52;;;7.10;86.10;;;;;;10820454;33;20051;-70
2021/12/26 16:31:43;;;;;;;31.37;22.60;;;7.10;86.10;;;;;;10823325;33;20058;-70
2021/12/26 16:37:48;;;;;;;30.27;21.50;;;7.10;86.10;;;;;;10823150;33;20024;-70
2021/12/26 16:43:51;;;;;;;22.35;15.75;;;7.10;86.10;;;;;;10829158;32;20035;-70
2021/12/26 16:49:53;;;;;;;24.55;16.50;;;7.10;86.10;;;;;;10829005;33;20020;-70
2021/12/26 16:55:55;;;;;;;24.70;17.45;;;7.10;86.10;;;;;;10815862;33;20043;-70
2021/12/26 17:01:58;;;;;;;25.75;20.15;;;7.00;86.10;;;;;;10828605;33;20070;-70
2021/12/26 17:08:00;;;;;;;44.92;35.85;;;7.00;86.10;;;;;;10815367;33;20028;-70
2021/12/26 17:14:02;;;;;;;28.73;21.52;;;7.00;86.10;;;;;;10828013;33;20443;-70
2021/12/26 17:20:05;;;;;;;23.35;17.12;;;6.90;86.10;;;;;;10827870;33;20404;-70
2021/12/26 17:26:14;;;;;;;23.73;17.90;;;6.80;86.10;;;;;;10828001;33;20340;-70
2021/12/26 17:32:17;;;;;;;23.08;19.60;;;6.80;86.10;;;;;;10827671;33;20027;-70
2021/12/26 17:38:20;;;;;;;20.02;14.70;;;6.80;86.20;;;;;;10827631;33;20050;-70
2021/12/26 17:44:22;;;;;;;21.98;17.80;;;6.80;86.20;;;;;;10830282;27;20023;-70
2021/12/26 17:50:25;;;;;;;23.00;17.75;;;6.70;86.10;;;;;;10826536;32;20353;-70
2021/12/26 17:56:28;;;;;;;24.63;15.50;;;6.70;86.20;;;;;;10826975;33;20057;-70
2021/12/26 18:02:30;;;;;;;24.30;19.73;;;6.70;86.20;;;;;;10826862;33;20012;-70
2021/12/26 18:08:32;;;;;;;25.37;22.27;;;6.60;86.20;;;;;;10822561;33;20316;-70
2021/12/26 18:14:35;;;;;;;17.33;13.52;;;6.60;86.20;;;;;;10823258;33;20054;-70
2021/12/26 18:20:37;;;;;;;26.10;20.42;;;6.60;86.10;;;;;;10826530;33;20023;-70
2021/12/26 18:26:39;;;;;;;22.30;18.00;;;6.50;86.10;;;;;;10826334;33;20023;-70
2021/12/26 18:32:43;;;;;;;22.33;14.90;;;6.50;86.10;;;;;;10821918;33;20028;-70
2021/12/26 18:38:45;;;;;;;53.97;37.72;;;6.50;86.10;;;;;;10826179;33;20035;-70
2021/12/26 18:44:48;;;;;;;24.40;17.80;;;6.50;86.10;;;;;;10823381;33;20347;-70
2021/12/26 18:50:51;;;;;;;23.00;18.10;;;6.40;86.10;;;;;;10825750;32;20054;-73
2021/12/26 18:56:54;;;;;;;17.95;12.48;;;6.40;86.10;;;;;;10825550;33;20035;-73
2021/12/26 19:02:56;;;;;;;19.08;15.27;;;6.40;86.00;;;;;;10825157;32;20042;-73
2021/12/26 19:08:58;;;;;;;18.27;14.60;;;6.40;86.00;;;;;;10825125;33;20085;-73
2021/12/26 19:15:01;;;;;;;21.85;18.30;;;6.30;86.00;;;;;;10825203;32;20024;-73
2021/12/26 19:21:06;;;;;;;16.62;12.98;;;6.30;86.00;;;;;;10805022;33;20021;-73
2021/12/26 19:27:08;;;;;;;15.43;12.32;;;6.30;86.00;;;;;;10786731;33;20090;-73
2021/12/26 19:33:11;;;;;;;20.17;15.07;;;6.20;85.90;;;;;;10788028;32;20058;-73
2021/12/26 19:39:14;;;;;;;29.15;23.27;;;6.20;85.90;;;;;;10787723;33;20047;-73
2021/12/26 19:45:17;;;;;;;19.27;15.40;;;6.20;85.90;;;;;;10787670;33;20044;-73
2021/12/26 19:51:20;;;;;;;18.60;15.25;;;6.10;86.00;;;;;;10783514;33;20083;-73
2021/12/26 19:57:22;;;;;;;24.58;18.17;;;6.10;86.00;;;;;;10787484;33;20380;-73
2021/12/26 20:03:30;;;;;;;29.45;25.23;;;6.00;86.00;;;;;;10787426;33;20024;-73
2021/12/26 20:09:33;;;;;;;20.60;18.02;;;6.00;86.00;;;;;;10789162;33;20028;-73
2021/12/26 20:15:35;;;;;;;21.60;17.62;;;6.00;86.00;;;;;;10816172;33;20051;-73
2021/12/26 20:21:37;;;;;;;21.60;17.33;;;6.00;85.90;;;;;;10824909;33;20046;-73
2021/12/26 20:27:42;;;;;;;22.52;19.83;;;6.00;85.90;;;;;;10824062;33;20144;-73
2021/12/26 20:33:45;;;;;;;15.18;13.60;;;6.00;86.00;;;;;;10802000;33;20024;-73
2021/12/26 20:39:47;;;;;;;15.60;12.45;;;6.00;85.90;;;;;;10792726;33;20024;-73
2021/12/26 20:45:49;;;;;;;14.77;13.27;;;5.90;85.90;;;;;;10843186;32;20085;-73
2021/12/26 20:51:52;;;;;;;14.73;12.75;;;5.80;85.90;;;;;;10792486;33;20024;-73
2021/12/26 20:57:54;;;;;;;20.10;17.87;;;5.80;85.90;;;;;;10792152;33;20021;-73
2021/12/26 21:03:56;;;;;;;17.37;15.15;;;5.80;85.90;;;;;;10791937;33;20024;-73
2021/12/26 21:09:59;;;;;;;15.52;13.70;;;5.80;85.80;;;;;;10842413;32;20024;-73
2021/12/26 21:16:02;;;;;;;15.73;14.02;;;5.70;85.80;;;;;;10790167;33;20047;-73
2021/12/26 21:22:05;;;;;;;20.20;17.73;;;5.70;85.80;;;;;;10791462;33;20025;-73
2021/12/26 21:28:07;;;;;;;15.90;13.05;;;5.70;85.80;;;;;;10791223;33;20021;-73
2021/12/26 21:34:09;;;;;;;19.10;15.25;;;5.60;85.90;;;;;;10787820;33;20428;-74
2021/12/26 21:40:12;;;;;;;23.87;20.40;;;5.60;85.90;;;;;;10814753;33;20414;-73
2021/12/26 21:46:14;;;;;;;36.28;32.45;;;5.60;85.90;;;;;;10827467;33;20024;-73
2021/12/26 21:52:18;;;;;;;30.58;23.50;;;5.60;85.80;;;;;;10827512;32;20422;-73
2021/12/26 21:58:20;;;;;;;22.62;19.48;;;5.60;85.90;;;;;;10827106;33;20078;-73
2021/12/26 22:04:22;;;;;;;21.62;18.12;;;5.50;86.00;;;;;;10827083;32;20124;-72
2021/12/26 22:10:25;;;;;;;23.58;20.12;;;5.60;86.00;;;;;;10827015;33;20430;-73
2021/12/26 22:16:27;;;;;;;24.23;18.73;;;5.50;86.00;;;;;;10826786;33;20332;-73
2021/12/26 22:22:30;;;;;;;20.52;16.33;;;5.50;86.00;;;;;;10826478;33;20047;-73
2021/12/26 22:28:33;;;;;;;18.90;16.20;;;5.60;85.90;;;;;;10826271;32;20035;-73
2021/12/26 22:34:35;;;;;;;29.30;22.58;;;5.50;85.90;;;;;;10826207;33;20039;-73
2021/12/26 22:40:38;;;;;;;21.08;15.88;;;5.50;85.90;;;;;;10825694;32;20263;-74
2021/12/26 22:46:40;;;;;;;27.15;24.27;;;5.60;85.90;;;;;;10821694;33;20028;-74
2021/12/26 22:52:43;;;;;;;23.42;17.17;;;5.60;85.90;;;;;;10811242;33;20037;-74
2021/12/26 22:58:45;;;;;;;22.13;19.33;;;5.60;85.90;;;;;;10825433;33;20046;-74
2021/12/26 23:04:47;;;;;;;23.85;19.55;;;5.60;85.80;;;;;;10825470;33;20039;-73
2021/12/26 23:10:50;;;;;;;23.58;18.67;;;5.60;85.80;;;;;;10825299;33;20078;-73
2021/12/26 23:16:52;;;;;;;37.28;31.05;;;5.50;85.80;;;;;;10825247;33;20050;-73
2021/12/26 23:22:55;;;;;;;21.15;18.95;;;5.50;85.80;;;;;;10824986;33;20043;-73
2021/12/26 23:28:57;;;;;;;25.55;20.55;;;5.60;85.80;;;;;;10811573;33;20025;-74
2021/12/26 23:34:59;;;;;;;18.37;14.98;;;5.50;85.80;;;;;;10824641;32;20301;-74
2021/12/26 23:41:09;;;;;;;23.95;17.92;;;5.50;85.80;;;;;;10821030;32;20032;-73
2021/12/26 23:47:11;;;;;;;29.98;25.90;;;5.50;85.80;;;;;;10824493;33;20024;-73
2021/12/26 23:53:14;;;;;;;24.25;21.17;;;5.50;85.90;;;;;;10826169;32;20301;-73
2021/12/26 23:59:16;;;;;;;39.33;30.85;;;5.50;86.00;;;;;;10830765;33;20023;-73
